Time;durP1;ratioP1;P1;durP2;ratioP2;P2;SDS_P1;SDS_P2;PMS_P1;PMS_P2;Temp;Humidity;BMP_temperature;BMP_pressure;BME280_temperature;BME280_humidity;BME280_pressure;Samples;Min_cycle;Max_cycle;Signal;HPM_P1;HPM_P2
2022/02/24 00:02:08;;;;;;;7.82;5.97;;;8.70;99.90;;;;;;5034012;28;20040;-90
2022/02/24 00:04:34;;;;;;;7.50;6.03;;;9.20;99.90;;;;;;5034057;28;20021;-90
2022/02/24 00:07:00;;;;;;;6.60;5.45;;;9.30;99.90;;;;;;5033903;28;20025;-90
2022/02/24 00:09:26;;;;;;;9.77;6.50;;;9.00;99.90;;;;;;5034051;28;20025;-90
2022/02/24 00:11:52;;;;;;;9.48;6.70;;;8.70;99.90;;;;;;5034896;28;20025;-90
2022/02/24 00:14:17;;;;;;;10.93;6.30;;;8.40;99.90;;;;;;5034293;28;20083;-90
2022/02/24 00:16:43;;;;;;;7.72;6.03;;;8.60;99.90;;;;;;5018615;28;20413;-91
2022/02/24 00:19:08;;;;;;;8.40;5.90;;;8.30;99.90;;;;;;5034366;28;20030;-90
2022/02/24 00:21:34;;;;;;;9.45;6.45;;;8.10;99.90;;;;;;5032575;28;20025;-90
2022/02/24 00:24:00;;;;;;;8.40;5.93;;;8.10;99.90;;;;;;5034512;28;20107;-90
2022/02/24 00:26:25;;;;;;;9.05;5.72;;;8.20;99.90;;;;;;5018069;28;20061;-90
2022/02/24 00:28:51;;;;;;;8.93;5.60;;;8.10;99.90;;;;;;5033786;28;20391;-90
2022/02/24 00:31:16;;;;;;;10.20;5.57;;;8.00;99.90;;;;;;5033917;28;20040;-90
2022/02/24 00:33:42;;;;;;;10.63;6.60;;;7.90;99.90;;;;;;5017102;28;20032;-90
2022/02/24 00:36:07;;;;;;;10.00;6.18;;;7.90;99.90;;;;;;5033639;28;20056;-89
2022/02/24 00:38:34;;;;;;;11.98;7.22;;;7.80;99.90;;;;;;5034326;28;20045;-90
2022/02/24 00:41:00;;;;;;;9.95;7.05;;;7.60;99.90;;;;;;5033357;28;20033;-90
2022/02/24 00:43:26;;;;;;;11.45;7.50;;;7.80;99.90;;;;;;5017211;28;20026;-90
2022/02/24 00:45:52;;;;;;;10.93;7.32;;;7.80;1.00;;;;;;5033749;28;20029;-90
2022/02/24 00:48:18;;;;;;;11.68;7.65;;;7.30;99.90;;;;;;5034091;28;20476;-90
2022/02/24 00:50:46;;;;;;;13.13;7.00;;;7.70;99.90;;;;;;5016224;28;20036;-90
2022/02/24 00:53:12;;;;;;;9.20;6.78;;;7.70;99.90;;;;;;5017164;28;20033;-90
2022/02/24 00:55:37;;;;;;;8.95;7.10;;;7.60;99.90;;;;;;5017142;28;20029;-90
2022/02/24 00:58:04;;;;;;;11.40;7.57;;;7.60;99.90;;;;;;5033090;28;20071;-90
2022/02/24 01:00:30;;;;;;;10.27;7.55;;;7.90;99.90;;;;;;5014758;28;20026;-90
2022/02/24 01:02:55;;;;;;;10.50;7.38;;;7.40;1.00;;;;;;5034072;28;20038;-90
2022/02/24 01:05:21;;;;;;;9.75;6.75;;;7.60;99.90;;;;;;5032524;28;20032;-90
2022/02/24 01:07:47;;;;;;;9.10;6.95;;;7.50;99.90;;;;;;5033051;28;20033;-89
2022/02/24 01:10:12;;;;;;;11.88;7.03;;;7.20;99.90;;;;;;5033286;28;20017;-90
2022/02/24 01:12:38;;;;;;;12.10;6.93;;;7.90;99.90;;;;;;5015675;28;20056;-90
2022/02/24 01:15:07;;;;;;;10.20;6.75;;;7.30;99.90;;;;;;5016540;28;20037;-90
2022/02/24 01:17:33;;;;;;;9.50;6.63;;;7.50;1.00;;;;;;5032426;28;20025;-90
2022/02/24 01:19:59;;;;;;;10.73;6.88;;;7.50;1.00;;;;;;5032675;28;20031;-90
2022/02/24 01:22:26;;;;;;;14.80;7.03;;;7.60;99.90;;;;;;5032923;28;20184;-90
2022/02/24 01:24:52;;;;;;;10.57;6.55;;;7.90;1.00;;;;;;5016877;28;20036;-90
2022/02/24 01:27:18;;;;;;;12.18;7.38;;;7.60;1.00;;;;;;5033439;28;20037;-90
2022/02/24 01:29:44;;;;;;;11.30;7.00;;;7.90;1.00;;;;;;5015447;28;20052;-90
2022/02/24 01:32:10;;;;;;;10.02;6.45;;;8.20;99.90;;;;;;5017477;28;20461;-93
2022/02/24 01:34:35;;;;;;;10.25;7.03;;;8.30;99.90;;;;;;5032148;28;20079;-90
2022/02/24 01:37:01;;;;;;;10.60;6.78;;;8.20;99.90;;;;;;5032662;28;20064;-90
2022/02/24 01:39:26;;;;;;;9.63;6.80;;;7.70;99.90;;;;;;5032602;28;20409;-90
2022/02/24 01:41:54;;;;;;;12.60;6.60;;;7.90;99.90;;;;;;5015426;28;20116;-90
2022/02/24 01:44:20;;;;;;;8.43;6.32;;;8.00;99.90;;;;;;5032434;28;20040;-90
2022/02/24 01:46:46;;;;;;;10.82;6.45;;;7.90;99.90;;;;;;5016077;28;20030;-90
2022/02/24 01:49:12;;;;;;;9.45;6.05;;;8.10;99.90;;;;;;5032178;28;20033;-91
2022/02/24 01:51:38;;;;;;;7.85;5.75;;;8.10;99.90;;;;;;5015491;28;20087;-90
2022/02/24 01:54:05;;;;;;;10.20;6.22;;;7.80;1.00;;;;;;5015282;28;20391;-90
2022/02/24 01:56:33;;;;;;;9.75;6.50;;;7.80;1.00;;;;;;5031900;28;20092;-90
2022/02/24 01:58:59;;;;;;;8.73;6.05;;;7.70;1.00;;;;;;5032383;28;20105;-90
2022/02/24 02:01:25;;;;;;;9.32;6.07;;;7.90;1.00;;;;;;5015669;28;20121;-90
2022/02/24 02:03:52;;;;;;;8.40;6.28;;;8.10;99.90;;;;;;5031959;28;20475;-90
2022/02/24 02:06:22;;;;;;;8.85;6.03;;;8.00;1.00;;;;;;5032387;28;20035;-91
2022/02/24 02:08:48;;;;;;;10.00;6.88;;;7.90;1.00;;;;;;5030789;28;20363;-90
2022/02/24 02:11:15;;;;;;;9.95;6.20;;;7.70;1.00;;;;;;5015882;28;20029;-90
2022/02/24 02:13:40;;;;;;;9.40;5.95;;;8.10;99.90;;;;;;5031642;28;20032;-90
2022/02/24 02:16:10;;;;;;;10.70;5.93;;;8.10;99.90;;;;;;5032140;28;20037;-90
2022/02/24 02:18:38;;;;;;;9.90;6.07;;;8.10;1.00;;;;;;5032281;28;20025;-90
2022/02/24 02:21:03;;;;;;;9.77;6.13;;;7.80;99.90;;;;;;5028512;28;20032;-92
2022/02/24 02:23:29;;;;;;;8.15;5.32;;;7.70;99.90;;;;;;5015407;28;20034;-90
2022/02/24 02:25:55;;;;;;;9.40;5.60;;;7.60;99.90;;;;;;5032012;28;20036;-90
2022/02/24 02:28:20;;;;;;;7.82;4.55;;;8.10;99.90;;;;;;5031982;28;20402;-91
2022/02/24 02:30:46;;;;;;;10.85;5.22;;;7.60;1.00;;;;;;5032194;28;20433;-90
2022/02/24 02:33:12;;;;;;;7.07;3.97;;;7.60;99.90;;;;;;5031778;28;20517;-91
2022/02/24 02:35:38;;;;;;;11.82;4.57;;;7.70;99.90;;;;;;5031879;28;20033;-90
2022/02/24 02:38:04;;;;;;;9.20;5.22;;;7.80;99.90;;;;;;5031922;28;20049;-91
2022/02/24 02:40:30;;;;;;;10.55;4.30;;;8.10;1.00;;;;;;5015386;28;20028;-90
2022/02/24 02:42:55;;;;;;;10.15;4.60;;;7.90;99.90;;;;;;5032433;28;20025;-90
2022/02/24 02:45:21;;;;;;;5.25;3.70;;;7.90;1.00;;;;;;5031584;28;20032;-91
2022/02/24 02:47:48;;;;;;;8.35;4.57;;;8.30;99.90;;;;;;5032075;28;20037;-90
2022/02/24 02:50:14;;;;;;;10.65;4.25;;;8.10;99.90;;;;;;5015318;28;20391;-91
2022/02/24 02:52:39;;;;;;;10.30;4.50;;;8.40;99.90;;;;;;5031577;28;20028;-90
2022/02/24 02:55:08;;;;;;;7.70;3.47;;;8.50;99.90;;;;;;5031667;28;20030;-90
2022/02/24 02:57:35;;;;;;;8.43;3.78;;;8.30;1.00;;;;;;5031826;28;20034;-90
2022/02/24 03:00:03;;;;;;;7.38;3.13;;;8.40;1.00;;;;;;5014438;28;20425;-90
2022/02/24 03:02:29;;;;;;;8.50;3.00;;;8.60;1.00;;;;;;5031803;28;20041;-90
2022/02/24 03:04:54;;;;;;;7.68;3.00;;;9.10;99.90;;;;;;5031908;28;20449;-90
2022/02/24 03:07:21;;;;;;;7.57;3.03;;;9.00;1.00;;;;;;5031502;28;20026;-91
2022/02/24 03:09:47;;;;;;;8.13;2.60;;;9.20;99.90;;;;;;5031747;28;20104;-90
2022/02/24 03:12:13;;;;;;;6.35;2.45;;;9.30;1.00;;;;;;5031567;28;20060;-91
2022/02/24 03:14:39;;;;;;;7.28;3.33;;;9.60;99.90;;;;;;5032232;28;20036;-90
2022/02/24 03:17:08;;;;;;;10.25;2.97;;;9.30;99.90;;;;;;5015040;28;20032;-90
2022/02/24 03:19:34;;;;;;;10.32;2.85;;;9.50;99.90;;;;;;5031460;28;20052;-90
2022/02/24 03:22:00;;;;;;;10.80;3.22;;;9.40;99.90;;;;;;5031442;28;20037;-90
2022/02/24 03:24:25;;;;;;;11.13;2.83;;;9.60;1.00;;;;;;5032912;28;20034;-90
2022/02/24 03:26:51;;;;;;;10.05;2.97;;;9.40;99.90;;;;;;5018359;28;20079;-91
2022/02/24 03:29:17;;;;;;;8.50;2.67;;;9.70;99.90;;;;;;5020171;28;20369;-91
2022/02/24 03:31:43;;;;;;;16.48;3.78;;;9.30;99.90;;;;;;5018220;28;20032;-91
2022/02/24 03:34:10;;;;;;;9.57;3.13;;;9.20;99.90;;;;;;5035114;28;20625;-90
2022/02/24 03:36:36;;;;;;;13.77;3.17;;;9.30;99.90;;;;;;5017745;28;20056;-90
2022/02/24 03:39:04;;;;;;;9.73;3.22;;;9.40;99.90;;;;;;5031340;28;20025;-90
2022/02/24 03:41:29;;;;;;;12.70;3.15;;;9.30;1.00;;;;;;5035011;28;20065;-91
2022/02/24 03:43:55;;;;;;;11.75;3.38;;;9.50;99.90;;;;;;5034544;28;20119;-90
2022/02/24 03:46:21;;;;;;;10.80;2.47;;;9.40;99.90;;;;;;5034747;28;20029;-91
2022/02/24 03:48:49;;;;;;;10.52;2.63;;;9.40;99.90;;;;;;5034947;28;20018;-90
2022/02/24 03:51:16;;;;;;;11.68;3.05;;;9.60;99.90;;;;;;5035061;28;20518;-91
2022/02/24 03:53:42;;;;;;;9.38;3.28;;;9.30;1.00;;;;;;5035101;28;20100;-90
2022/02/24 03:56:08;;;;;;;11.15;2.88;;;9.70;99.90;;;;;;5035031;28;20156;-90
2022/02/24 03:58:33;;;;;;;12.60;3.05;;;9.40;99.90;;;;;;5017789;28;20049;-90
2022/02/24 04:00:59;;;;;;;11.07;2.92;;;9.40;99.90;;;;;;5020250;28;20558;-90
2022/02/24 04:03:25;;;;;;;13.88;3.13;;;9.70;99.90;;;;;;5034552;28;20425;-90
2022/02/24 04:05:51;;;;;;;11.90;3.03;;;9.40;99.90;;;;;;5017247;28;20087;-91
2022/02/24 04:08:16;;;;;;;11.25;2.90;;;9.40;99.90;;;;;;5019842;28;20040;-90
2022/02/24 04:10:42;;;;;;;9.70;2.50;;;9.40;99.90;;;;;;5024035;28;20040;-90
2022/02/24 04:13:08;;;;;;;11.30;3.25;;;9.40;1.00;;;;;;5033950;28;20080;-90
2022/02/24 04:15:34;;;;;;;15.00;2.90;;;9.80;99.90;;;;;;5034251;28;20042;-90
2022/02/24 04:18:00;;;;;;;12.23;2.67;;;9.50;99.90;;;;;;5034860;28;20020;-91
2022/02/24 04:20:26;;;;;;;12.13;3.20;;;9.50;99.90;;;;;;5034441;28;20425;-90
2022/02/24 04:22:51;;;;;;;13.23;2.90;;;9.50;99.90;;;;;;5034035;28;20029;-90
2022/02/24 04:25:17;;;;;;;13.68;3.20;;;9.90;99.90;;;;;;5033831;28;20098;-90
2022/02/24 04:27:47;;;;;;;12.50;3.20;;;9.60;99.90;;;;;;5033670;28;20030;-90
2022/02/24 04:30:13;;;;;;;13.63;3.33;;;9.60;1.00;;;;;;5034206;28;20034;-91
2022/02/24 04:32:40;;;;;;;16.15;3.42;;;9.60;99.90;;;;;;5032107;28;20041;-90
2022/02/24 04:35:06;;;;;;;12.40;2.85;;;10.00;99.90;;;;;;5033992;28;20038;-90
2022/02/24 04:37:33;;;;;;;12.40;2.85;;;9.60;99.90;;;;;;5033506;28;20041;-90
2022/02/24 04:39:58;;;;;;;12.38;3.47;;;10.00;99.90;;;;;;5033802;28;20506;-90
2022/02/24 04:42:24;;;;;;;14.82;2.97;;;9.90;99.90;;;;;;5015722;28;20017;-91
2022/02/24 04:44:49;;;;;;;13.40;2.90;;;9.60;99.90;;;;;;5034240;28;20134;-90
2022/02/24 04:47:15;;;;;;;16.30;3.15;;;9.50;99.90;;;;;;5033637;28;20034;-91
2022/02/24 04:49:41;;;;;;;15.13;3.20;;;9.90;99.90;;;;;;5017100;28;20021;-90
2022/02/24 04:52:07;;;;;;;9.95;3.03;;;9.50;99.90;;;;;;5017923;28;20035;-90
2022/02/24 04:54:32;;;;;;;13.35;3.13;;;9.50;99.90;;;;;;5033566;28;20402;-90
2022/02/24 04:56:58;;;;;;;13.27;2.60;;;9.50;99.90;;;;;;5016430;28;20033;-90
2022/02/24 04:59:24;;;;;;;12.40;3.40;;;9.50;99.90;;;;;;5033428;28;20101;-90
2022/02/24 05:01:50;;;;;;;13.10;3.30;;;9.60;99.90;;;;;;5033286;28;20124;-90
2022/02/24 05:04:16;;;;;;;14.93;3.13;;;9.60;99.90;;;;;;5033203;28;20382;-90
2022/02/24 05:06:42;;;;;;;15.68;3.58;;;9.60;1.00;;;;;;5016218;28;20087;-90
2022/02/24 05:09:08;;;;;;;15.95;3.45;;;9.60;99.90;;;;;;5033606;28;20032;-90
2022/02/24 05:11:34;;;;;;;10.23;3.03;;;9.50;99.90;;;;;;5033152;28;20030;-90
2022/02/24 05:14:00;;;;;;;13.52;3.58;;;9.50;99.90;;;;;;5033006;28;20025;-91
2022/02/24 05:16:26;;;;;;;13.20;3.05;;;9.80;99.90;;;;;;5017922;28;20045;-90
2022/02/24 05:18:52;;;;;;;12.60;2.60;;;9.60;99.90;;;;;;5016778;28;20021;-90
2022/02/24 05:21:18;;;;;;;10.75;2.70;;;9.80;99.90;;;;;;5014980;28;20040;-90
2022/02/24 05:23:44;;;;;;;13.88;3.30;;;9.60;99.90;;;;;;5033515;28;20030;-89
2022/02/24 05:26:10;;;;;;;10.75;2.80;;;9.70;99.90;;;;;;5016036;28;20036;-90
2022/02/24 05:28:36;;;;;;;18.50;3.47;;;9.80;99.90;;;;;;5032773;28;20087;-90
2022/02/24 05:31:01;;;;;;;9.23;2.60;;;9.80;99.90;;;;;;5032309;28;20077;-90
2022/02/24 05:33:29;;;;;;;13.65;3.22;;;9.80;99.90;;;;;;5033209;28;20034;-90
2022/02/24 05:35:55;;;;;;;16.38;3.40;;;9.80;1.00;;;;;;5033050;28;20063;-90
2022/02/24 05:38:22;;;;;;;10.95;3.10;;;9.60;99.90;;;;;;5032531;28;20517;-91
2022/02/24 05:40:48;;;;;;;14.32;2.83;;;9.70;99.90;;;;;;5032366;28;20033;-90
2022/02/24 05:43:14;;;;;;;13.48;2.45;;;10.00;99.90;;;;;;5016193;28;20112;-90
2022/02/24 05:45:39;;;;;;;14.05;3.20;;;10.10;99.90;;;;;;5032515;28;20037;-90
2022/02/24 05:48:05;;;;;;;12.55;3.30;;;10.10;99.90;;;;;;5014591;28;20017;-89
2022/02/24 05:50:30;;;;;;;18.23;3.40;;;9.70;99.90;;;;;;5032137;28;20068;-90
2022/02/24 05:53:02;;;;;;;12.32;3.20;;;9.60;99.90;;;;;;5015967;28;20033;-90
2022/02/24 05:55:29;;;;;;;14.60;3.35;;;9.60;1.00;;;;;;5031523;28;20043;-90
2022/02/24 05:57:55;;;;;;;13.18;3.28;;;9.90;1.00;;;;;;5032140;28;20056;-90
2022/02/24 06:00:21;;;;;;;13.15;3.03;;;9.50;99.90;;;;;;5032641;28;20026;-89
2022/02/24 06:02:46;;;;;;;14.63;3.20;;;9.50;99.90;;;;;;5032589;28;20067;-90
2022/02/24 06:05:12;;;;;;;16.75;3.42;;;9.80;99.90;;;;;;5033733;28;20121;-90
2022/02/24 06:07:37;;;;;;;17.05;3.50;;;9.50;99.90;;;;;;5032194;28;20039;-90
2022/02/24 06:10:04;;;;;;;16.95;3.60;;;9.50;99.90;;;;;;5031532;28;20027;-90
2022/02/24 06:12:29;;;;;;;12.65;3.25;;;9.40;99.90;;;;;;5014800;28;20029;-89
2022/02/24 06:14:55;;;;;;;12.32;2.92;;;9.50;99.90;;;;;;5032167;28;20071;-90
2022/02/24 06:17:20;;;;;;;12.32;3.28;;;9.30;99.90;;;;;;5015532;28;20478;-90
2022/02/24 06:19:46;;;;;;;14.73;3.83;;;9.30;99.90;;;;;;5031834;28;20025;-90
2022/02/24 06:22:12;;;;;;;15.98;3.25;;;9.30;99.90;;;;;;5017318;28;20514;-90
2022/02/24 06:24:37;;;;;;;14.68;3.58;;;9.30;99.90;;;;;;5014242;28;20032;-90
2022/02/24 06:27:03;;;;;;;16.23;3.55;;;9.20;99.90;;;;;;5010405;28;20540;-90
2022/02/24 06:29:29;;;;;;;22.02;3.95;;;9.30;99.90;;;;;;5031605;28;20025;-90
2022/02/24 06:31:54;;;;;;;19.35;3.22;;;9.30;99.90;;;;;;5017264;28;20075;-90
2022/02/24 06:34:20;;;;;;;17.00;3.50;;;9.30;99.90;;;;;;5016774;28;20089;-90
2022/02/24 06:36:45;;;;;;;16.58;3.63;;;9.20;99.90;;;;;;5031490;28;20041;-90
2022/02/24 06:39:11;;;;;;;13.68;3.25;;;9.30;99.90;;;;;;5031924;28;20018;-90
2022/02/24 06:41:36;;;;;;;14.88;3.40;;;9.30;99.90;;;;;;5016622;28;20030;-90
2022/02/24 06:44:03;;;;;;;17.67;3.60;;;9.30;99.90;;;;;;5016085;28;20022;-90
2022/02/24 06:46:28;;;;;;;18.80;4.15;;;9.30;99.90;;;;;;5021223;28;20037;-90
2022/02/24 06:48:54;;;;;;;22.83;4.55;;;9.30;99.90;;;;;;5015311;28;20084;-90
2022/02/24 06:51:19;;;;;;;17.80;4.43;;;9.40;99.90;;;;;;5014167;28;20065;-90
2022/02/24 06:53:45;;;;;;;14.60;3.85;;;9.50;99.90;;;;;;5031653;28;20026;-90
2022/02/24 06:56:11;;;;;;;14.70;3.80;;;9.70;99.90;;;;;;5031830;28;20454;-90
2022/02/24 06:58:36;;;;;;;18.35;3.92;;;9.50;99.90;;;;;;5016909;28;20032;-90
2022/02/24 07:01:02;;;;;;;13.27;3.10;;;9.50;99.90;;;;;;5035399;28;20507;-90
2022/02/24 07:03:29;;;;;;;13.32;3.55;;;9.60;99.90;;;;;;5017807;28;20033;-90
2022/02/24 07:05:54;;;;;;;12.07;3.22;;;9.60;1.00;;;;;;5018233;28;20025;-90
2022/02/24 07:08:20;;;;;;;17.13;4.22;;;9.60;99.90;;;;;;5020948;28;20033;-89
2022/02/24 07:10:45;;;;;;;15.65;3.80;;;9.70;99.90;;;;;;5035303;28;20021;-90
2022/02/24 07:13:11;;;;;;;12.90;4.13;;;9.80;99.90;;;;;;5035529;28;20385;-90
2022/02/24 07:15:37;;;;;;;19.63;3.88;;;9.90;99.90;;;;;;5035315;28;20169;-90
2022/02/24 07:18:03;;;;;;;18.30;3.47;;;9.90;99.90;;;;;;5035732;28;20047;-90
2022/02/24 07:20:28;;;;;;;16.88;3.63;;;10.00;99.90;;;;;;5018621;28;20520;-90
2022/02/24 07:22:54;;;;;;;12.65;3.67;;;10.00;99.90;;;;;;5035219;28;20429;-90
2022/02/24 07:25:20;;;;;;;14.57;3.17;;;10.40;99.90;;;;;;5034918;28;20025;-90
2022/02/24 07:27:45;;;;;;;14.90;3.13;;;10.30;99.90;;;;;;5035137;28;20037;-90
2022/02/24 07:30:12;;;;;;;15.98;3.47;;;10.20;99.90;;;;;;5034191;28;20022;-90
2022/02/24 07:32:38;;;;;;;16.77;3.65;;;10.20;1.00;;;;;;5035225;28;20030;-90
2022/02/24 07:35:04;;;;;;;15.55;3.53;;;10.30;1.00;;;;;;5034889;28;20036;-90
2022/02/24 07:37:30;;;;;;;12.90;3.17;;;10.30;99.90;;;;;;5034441;28;20144;-89
2022/02/24 07:39:56;;;;;;;13.95;3.85;;;10.40;99.90;;;;;;5034739;28;20589;-89
2022/02/24 07:42:21;;;;;;;14.98;3.42;;;10.60;99.90;;;;;;5035213;28;20029;-89
2022/02/24 07:44:47;;;;;;;12.23;3.50;;;10.50;99.90;;;;;;5035284;28;20032;-90
2022/02/24 07:47:14;;;;;;;13.93;3.95;;;10.50;99.90;;;;;;5018207;28;20437;-90
2022/02/24 07:49:40;;;;;;;18.38;3.85;;;10.60;99.90;;;;;;5018024;28;20241;-90
2022/02/24 07:52:06;;;;;;;16.55;3.70;;;10.50;99.90;;;;;;5034180;28;20084;-90
2022/02/24 07:54:32;;;;;;;13.13;3.53;;;10.60;1.00;;;;;;5016790;28;20448;-90
2022/02/24 07:56:58;;;;;;;13.20;3.70;;;10.80;99.90;;;;;;5035213;28;20228;-90
2022/02/24 07:59:23;;;;;;;15.70;3.47;;;10.80;99.90;;;;;;5034581;28;20482;-90
2022/02/24 08:01:49;;;;;;;13.38;4.00;;;10.90;99.90;;;;;;5034508;28;20076;-90
2022/02/24 08:04:15;;;;;;;17.65;3.60;;;11.00;99.90;;;;;;5034227;28;20352;-90
2022/02/24 08:06:41;;;;;;;16.17;3.55;;;11.10;99.90;;;;;;5033952;28;20040;-90
2022/02/24 08:09:07;;;;;;;15.00;4.30;;;11.50;99.90;;;;;;5017507;28;20036;-90
2022/02/24 08:11:34;;;;;;;12.68;3.45;;;11.70;99.90;;;;;;5033741;28;20025;-90
2022/02/24 08:14:01;;;;;;;10.65;3.45;;;11.50;99.90;;;;;;5017760;28;20041;-90
2022/02/24 08:16:26;;;;;;;14.35;4.20;;;11.40;99.90;;;;;;5034050;28;20038;-90
2022/02/24 08:18:55;;;;;;;13.75;3.30;;;11.40;99.90;;;;;;5034110;28;20429;-91
2022/02/24 08:21:24;;;;;;;13.35;3.88;;;11.60;99.90;;;;;;5033814;28;20430;-90
2022/02/24 08:23:50;;;;;;;13.60;3.83;;;11.60;99.90;;;;;;5014975;28;20438;-90
2022/02/24 08:26:16;;;;;;;15.60;4.53;;;11.70;99.90;;;;;;5034242;28;20034;-90
2022/02/24 08:28:42;;;;;;;13.10;3.92;;;11.80;99.90;;;;;;5017617;28;20120;-90
2022/02/24 08:31:07;;;;;;;16.17;3.80;;;12.00;1.00;;;;;;5033878;28;20029;-90
2022/02/24 08:33:33;;;;;;;15.57;3.92;;;12.00;99.90;;;;;;5033774;28;20563;-90
2022/02/24 08:35:59;;;;;;;13.73;3.90;;;12.20;99.90;;;;;;5034395;28;20033;-90
2022/02/24 08:38:24;;;;;;;10.43;3.10;;;12.10;99.90;;;;;;5033878;28;20049;-90
2022/02/24 08:40:50;;;;;;;14.00;3.67;;;12.20;99.90;;;;;;5033466;28;20257;-90
2022/02/24 08:43:16;;;;;;;15.95;4.15;;;12.10;99.90;;;;;;5017048;28;20026;-90
2022/02/24 08:45:42;;;;;;;13.23;3.35;;;12.50;99.90;;;;;;5034198;28;20389;-90
2022/02/24 08:48:08;;;;;;;15.60;3.58;;;12.90;99.90;;;;;;5034072;28;20053;-90
2022/02/24 08:50:34;;;;;;;20.20;4.03;;;13.30;99.90;;;;;;5033460;28;20092;-90
2022/02/24 08:53:00;;;;;;;14.00;3.88;;;13.20;99.90;;;;;;5033578;28;20119;-91
2022/02/24 08:55:26;;;;;;;14.43;3.75;;;13.40;99.90;;;;;;5016807;28;20033;-91
2022/02/24 08:57:52;;;;;;;13.13;4.03;;;13.80;99.90;;;;;;5033407;28;20041;-90
2022/02/24 09:00:18;;;;;;;14.48;3.85;;;14.30;99.90;;;;;;5033437;28;20029;-90
2022/02/24 09:02:44;;;;;;;14.02;3.90;;;14.80;99.90;;;;;;5033610;28;20467;-91
2022/02/24 09:05:10;;;;;;;11.95;3.58;;;15.00;99.90;;;;;;5016596;28;20026;-91
2022/02/24 09:07:36;;;;;;;15.18;3.65;;;15.20;99.90;;;;;;5033094;28;20045;-91
2022/02/24 09:10:02;;;;;;;12.80;3.47;;;15.60;99.90;;;;;;5033527;28;20021;-91
2022/02/24 09:12:28;;;;;;;14.50;3.55;;;15.50;99.90;;;;;;5015373;28;20069;-91
2022/02/24 09:14:53;;;;;;;11.07;3.53;;;15.10;99.90;;;;;;5033469;28;20060;-91
2022/02/24 09:17:19;;;;;;;11.82;3.95;;;15.20;99.90;;;;;;5032841;28;20037;-91
2022/02/24 09:19:45;;;;;;;12.38;3.63;;;15.20;99.90;;;;;;5032766;28;20017;-91
2022/02/24 09:22:13;;;;;;;12.68;3.50;;;15.70;99.90;;;;;;5015159;28;20040;-91
2022/02/24 09:24:40;;;;;;;16.55;4.00;;;15.80;1.00;;;;;;5033317;28;20394;-91
2022/02/24 09:27:06;;;;;;;14.95;3.60;;;16.90;99.90;;;;;;5033528;28;20025;-91
2022/02/24 09:29:33;;;;;;;10.65;3.15;;;17.60;99.90;;;;;;5032667;28;20040;-92
2022/02/24 09:31:59;;;;;;;12.13;3.15;;;17.90;99.90;;;;;;5032375;28;20033;-91
2022/02/24 09:34:24;;;;;;;9.57;3.40;;;17.80;99.90;;;;;;5032913;28;20025;-91
2022/02/24 09:36:50;;;;;;;10.00;3.20;;;16.70;99.90;;;;;;5031616;28;20100;-91
2022/02/24 09:39:15;;;;;;;10.65;3.05;;;16.30;99.90;;;;;;5033536;28;20029;-91
2022/02/24 09:41:43;;;;;;;10.48;3.30;;;15.30;99.90;;;;;;5015458;28;20030;-91
2022/02/24 09:44:09;;;;;;;10.15;3.13;;;15.00;99.90;;;;;;5032880;28;20030;-90
2022/02/24 09:46:35;;;;;;;14.30;3.15;;;15.10;99.90;;;;;;5015790;28;20025;-91
2022/02/24 09:49:04;;;;;;;9.70;3.00;;;14.70;99.90;;;;;;5032446;28;20025;-91
2022/02/24 09:51:31;;;;;;;14.18;3.50;;;14.70;99.90;;;;;;5032393;28;20029;-91
2022/02/24 09:53:56;;;;;;;9.07;2.78;;;14.70;99.90;;;;;;5033031;28;20120;-91
2022/02/24 09:56:23;;;;;;;14.48;3.50;;;14.50;99.90;;;;;;5031982;28;20132;-90
2022/02/24 09:58:50;;;;;;;10.70;3.40;;;14.30;99.90;;;;;;5017649;28;20063;-91
2022/02/24 10:01:17;;;;;;;7.57;2.75;;;14.30;99.90;;;;;;5031574;28;20053;-91
2022/02/24 10:03:52;;;;;;;12.73;2.90;;;14.10;99.90;;;;;;5014858;28;20060;-91
2022/02/24 10:06:18;;;;;;;9.02;2.72;;;14.00;99.90;;;;;;5014374;28;20029;-91
2022/02/24 10:08:46;;;;;;;9.40;3.05;;;14.20;99.90;;;;;;5032762;28;20028;-91
2022/02/24 10:11:19;;;;;;;11.20;2.70;;;14.30;99.90;;;;;;5031812;28;20045;-91
2022/02/24 10:14:08;;;;;;;11.40;2.70;;;14.50;99.90;;;;;;5032443;28;20025;-91
2022/02/24 10:16:51;;;;;;;8.25;2.70;;;14.40;99.90;;;;;;5015476;28;20121;-91
2022/02/24 10:19:17;;;;;;;7.68;2.30;;;14.20;99.90;;;;;;5031987;28;20048;-91
2022/02/24 10:22:03;;;;;;;10.20;2.80;;;14.30;99.90;;;;;;5031925;28;20116;-91
2022/02/24 10:24:30;;;;;;;9.88;2.95;;;14.50;99.90;;;;;;5014109;28;20033;-91
2022/02/24 10:27:19;;;;;;;8.02;2.30;;;14.70;99.90;;;;;;5032535;28;20025;-91
2022/02/24 10:29:52;;;;;;;10.13;2.75;;;14.50;99.90;;;;;;5031967;28;20471;-91
2022/02/24 10:32:37;;;;;;;10.95;2.80;;;15.00;99.90;;;;;;5021353;28;20094;-91
2022/02/24 10:35:32;;;;;;;10.57;2.50;;;15.00;99.90;;;;;;5031741;28;20022;-90
2022/02/24 10:38:06;;;;;;;9.90;2.78;;;15.00;99.90;;;;;;5031719;28;20111;-91
2022/02/24 10:40:36;;;;;;;6.90;2.40;;;15.10;99.90;;;;;;5031820;28;20030;-91
2022/02/24 10:43:21;;;;;;;8.75;2.53;;;14.90;99.90;;;;;;5032094;28;20096;-90
2022/02/24 10:46:20;;;;;;;11.10;2.83;;;14.50;99.90;;;;;;5017399;28;20109;-91
2022/02/24 10:48:54;;;;;;;11.13;2.38;;;15.10;99.90;;;;;;5017553;28;20101;-91
2022/02/24 10:51:31;;;;;;;8.18;2.53;;;15.40;99.90;;;;;;5031601;28;20029;-91
2022/02/24 10:54:08;;;;;;;7.88;2.05;;;16.10;99.90;;;;;;5031439;28;20028;-91
2022/02/24 10:56:36;;;;;;;8.38;2.15;;;15.90;99.90;;;;;;5013776;28;20048;-91
2022/02/24 10:59:02;;;;;;;8.65;2.00;;;15.30;99.90;;;;;;5031130;28;20037;-91
2022/02/24 11:01:29;;;;;;;9.95;2.65;;;15.20;99.90;;;;;;5031304;28;20026;-91
2022/02/24 11:04:06;;;;;;;9.10;2.78;;;15.30;99.90;;;;;;5031667;28;20120;-91
2022/02/24 11:06:36;;;;;;;9.48;2.30;;;15.10;99.90;;;;;;5032102;28;20053;-91
2022/02/24 11:09:07;;;;;;;9.32;2.40;;;15.00;99.90;;;;;;5014684;28;20026;-91
2022/02/24 11:11:35;;;;;;;9.93;2.83;;;14.90;99.90;;;;;;5031476;28;20037;-91
2022/02/24 11:14:05;;;;;;;8.45;2.25;;;15.00;99.90;;;;;;5031059;28;20041;-90
2022/02/24 11:16:32;;;;;;;8.93;2.17;;;14.80;99.90;;;;;;5015629;28;20573;-91
2022/02/24 11:18:59;;;;;;;9.57;2.08;;;14.90;99.90;;;;;;5031392;28;20060;-90
2022/02/24 11:21:26;;;;;;;10.77;2.42;;;14.70;99.90;;;;;;5031096;28;20117;-91
2022/02/24 11:23:53;;;;;;;7.38;2.60;;;14.70;99.90;;;;;;5032199;28;20474;-91
2022/02/24 11:26:30;;;;;;;8.55;2.38;;;14.60;99.90;;;;;;5022127;28;20026;-91
2022/02/24 11:29:08;;;;;;;5.03;2.38;;;14.60;99.90;;;;;;5030810;28;20037;-91
2022/02/24 11:31:44;;;;;;;10.75;2.28;;;14.40;99.90;;;;;;5031325;28;20037;-92
2022/02/24 11:34:10;;;;;;;7.65;2.35;;;14.60;99.90;;;;;;5031690;28;20032;-91
2022/02/24 11:36:41;;;;;;;7.88;2.72;;;14.50;99.90;;;;;;5031256;28;20454;-91
2022/02/24 11:39:15;;;;;;;6.43;1.90;;;14.40;99.90;;;;;;5014346;28;20121;-91
2022/02/24 11:41:55;;;;;;;6.88;1.80;;;14.10;99.90;;;;;;5030682;28;20045;-91
2022/02/24 11:44:38;;;;;;;9.88;2.83;;;14.20;99.90;;;;;;5030788;28;20021;-91
2022/02/24 11:47:11;;;;;;;7.35;2.63;;;14.30;99.90;;;;;;5018828;28;20025;-91
2022/02/24 11:49:56;;;;;;;5.35;1.73;;;14.30;99.90;;;;;;5034554;28;20486;-90
2022/02/24 11:52:30;;;;;;;8.75;1.90;;;14.20;99.90;;;;;;5034716;28;20028;-91
2022/02/24 11:54:58;;;;;;;4.55;1.88;;;14.40;99.90;;;;;;5034810;28;20029;-91
2022/02/24 11:57:33;;;;;;;8.52;2.47;;;14.60;99.90;;;;;;5016645;28;20470;-91
2022/02/24 12:00:13;;;;;;;5.95;1.90;;;14.60;99.90;;;;;;5035195;28;20490;-91
2022/02/24 12:02:43;;;;;;;6.20;2.15;;;15.30;99.90;;;;;;5034919;28;20025;-92
2022/02/24 12:05:26;;;;;;;10.15;2.55;;;15.40;99.90;;;;;;5034536;28;20053;-92
2022/02/24 12:08:07;;;;;;;4.03;1.75;;;15.30;99.90;;;;;;5034436;28;20033;-91
2022/02/24 12:10:48;;;;;;;8.60;2.70;;;15.30;99.90;;;;;;5017841;28;20018;-91
2022/02/24 12:13:26;;;;;;;7.00;1.80;;;15.90;99.90;;;;;;5033963;28;20037;-91
2022/02/24 12:16:10;;;;;;;7.18;2.00;;;16.30;99.90;;;;;;5034357;28;20041;-91
2022/02/24 12:18:37;;;;;;;5.40;1.98;;;16.10;99.90;;;;;;5018617;28;20033;-92
2022/02/24 12:21:31;;;;;;;7.82;2.20;;;16.40;99.90;;;;;;5034818;28;20032;-92
2022/02/24 12:23:58;;;;;;;6.82;2.17;;;15.90;99.90;;;;;;5033616;28;20025;-91
2022/02/24 12:26:42;;;;;;;7.15;2.35;;;15.40;99.90;;;;;;5033901;28;20025;-91
2022/02/24 12:29:25;;;;;;;7.15;1.98;;;15.00;99.90;;;;;;5033788;28;20397;-91
2022/02/24 12:31:59;;;;;;;9.07;2.13;;;14.80;99.90;;;;;;5033995;28;20037;-91
2022/02/24 12:34:26;;;;;;;5.80;1.73;;;14.90;99.90;;;;;;5017728;28;20095;-91
2022/02/24 12:36:52;;;;;;;8.68;2.30;;;15.00;99.90;;;;;;5017139;28;20060;-92
2022/02/24 12:39:18;;;;;;;6.53;2.05;;;15.90;99.90;;;;;;5034149;28;20026;-92
2022/02/24 12:41:44;;;;;;;3.63;2.28;;;16.70;99.90;;;;;;5033973;28;20059;-92
2022/02/24 12:44:23;;;;;;;9.70;2.20;;;16.80;99.90;;;;;;5033677;28;20124;-92
2022/02/24 12:46:49;;;;;;;5.45;2.00;;;16.90;99.90;;;;;;5033709;28;20032;-92
2022/02/24 12:49:15;;;;;;;10.38;2.60;;;16.60;99.90;;;;;;5017453;28;20112;-92
2022/02/24 12:51:41;;;;;;;9.77;3.20;;;16.40;99.90;;;;;;5033947;28;20113;-92